sensor_id;sensor_type;location;lat;lon;timestamp;pressure;altitude;pressure_sealevel;temperature;humidity
250;BME280;109;19.806;-70.704;2023-04-28T00:01:06;101261.59;;;26.91;59.75
250;BME280;109;19.806;-70.704;2023-04-28T00:03:33;101259.63;;;26.95;59.14
250;BME280;109;19.806;-70.704;2023-04-28T00:05:59;101267.44;;;26.99;59.62
250;BME280;109;19.806;-70.704;2023-04-28T00:08:26;101267.94;;;27.06;59.19
250;BME280;109;19.806;-70.704;2023-04-28T00:10:52;101259.13;;;27.04;59.50
250;BME280;109;19.806;-70.704;2023-04-28T00:13:19;101270.28;;;26.96;59.88
250;BME280;109;19.806;-70.704;2023-04-28T00:15:46;101273.66;;;27.00;59.56
250;BME280;109;19.806;-70.704;2023-04-28T00:18:13;101275.41;;;27.01;59.95
250;BME280;109;19.806;-70.704;2023-04-28T00:20:39;101275.56;;;26.98;60.10
250;BME280;109;19.806;-70.704;2023-04-28T00:23:06;101279.03;;;27.00;59.48
250;BME280;109;19.806;-70.704;2023-04-28T00:25:32;101281.03;;;26.96;60.11
250;BME280;109;19.806;-70.704;2023-04-28T00:27:58;101274.22;;;26.89;60.03
250;BME280;109;19.806;-70.704;2023-04-28T00:30:25;101275.41;;;26.83;59.30
250;BME280;109;19.806;-70.704;2023-04-28T00:32:51;101273.44;;;26.87;59.71
250;BME280;109;19.806;-70.704;2023-04-28T00:35:18;101285.38;;;26.81;59.60
250;BME280;109;19.806;-70.704;2023-04-28T00:37:45;101285.81;;;26.74;59.58
250;BME280;109;19.806;-70.704;2023-04-28T00:40:11;101282.16;;;26.75;60.10
250;BME280;109;19.806;-70.704;2023-04-28T00:42:38;101288.06;;;26.81;59.67
250;BME280;109;19.806;-70.704;2023-04-28T00:45:05;101295.97;;;26.84;60.01
250;BME280;109;19.806;-70.704;2023-04-28T00:47:33;101294.84;;;26.89;60.39
250;BME280;109;19.806;-70.704;2023-04-28T00:50:00;101297.50;;;26.73;60.02
250;BME280;109;19.806;-70.704;2023-04-28T00:52:27;101288.81;;;26.68;60.14
250;BME280;109;19.806;-70.704;2023-04-28T00:54:54;101289.50;;;26.71;60.52
250;BME280;109;19.806;-70.704;2023-04-28T00:57:29;101298.28;;;26.75;60.78
250;BME280;109;19.806;-70.704;2023-04-28T00:59:56;101292.91;;;26.75;60.27
250;BME280;109;19.806;-70.704;2023-04-28T01:02:30;101299.16;;;26.75;60.11
250;BME280;109;19.806;-70.704;2023-04-28T01:04:57;101303.38;;;26.64;60.39
250;BME280;109;19.806;-70.704;2023-04-28T01:07:32;101293.31;;;26.67;60.21
250;BME280;109;19.806;-70.704;2023-04-28T01:10:01;101299.81;;;26.63;60.73
250;BME280;109;19.806;-70.704;2023-04-28T01:12:35;101298.66;;;26.52;61.14
250;BME280;109;19.806;-70.704;2023-04-28T01:15:02;101296.84;;;26.52;60.71
250;BME280;109;19.806;-70.704;2023-04-28T01:17:35;101308.59;;;26.49;60.17
250;BME280;109;19.806;-70.704;2023-04-28T01:20:02;101313.69;;;26.37;61.22
250;BME280;109;19.806;-70.704;2023-04-28T01:22:36;101308.78;;;26.28;61.31
250;BME280;109;19.806;-70.704;2023-04-28T01:25:03;101303.34;;;26.29;61.04
250;BME280;109;19.806;-70.704;2023-04-28T01:27:37;101302.97;;;26.37;61.05
250;BME280;109;19.806;-70.704;2023-04-28T01:30:04;101304.53;;;26.24;60.84
250;BME280;109;19.806;-70.704;2023-04-28T01:32:38;101305.00;;;26.32;60.81
250;BME280;109;19.806;-70.704;2023-04-28T01:35:04;101313.28;;;26.27;60.34
250;BME280;109;19.806;-70.704;2023-04-28T01:37:38;101324.00;;;26.27;60.84
250;BME280;109;19.806;-70.704;2023-04-28T01:40:19;101330.25;;;26.28;60.61
250;BME280;109;19.806;-70.704;2023-04-28T01:42:45;101320.97;;;26.35;61.04
250;BME280;109;19.806;-70.704;2023-04-28T01:45:19;101320.66;;;26.24;60.96
250;BME280;109;19.806;-70.704;2023-04-28T01:47:45;101325.69;;;26.30;60.53
250;BME280;109;19.806;-70.704;2023-04-28T01:50:19;101326.56;;;26.30;60.72
250;BME280;109;19.806;-70.704;2023-04-28T01:52:45;101329.94;;;26.34;60.34
250;BME280;109;19.806;-70.704;2023-04-28T01:55:18;101337.44;;;26.27;60.75
250;BME280;109;19.806;-70.704;2023-04-28T01:57:44;101337.84;;;26.20;61.25
250;BME280;109;19.806;-70.704;2023-04-28T02:00:18;101333.81;;;26.11;60.89
250;BME280;109;19.806;-70.704;2023-04-28T02:02:47;101344.63;;;26.09;61.09
250;BME280;109;19.806;-70.704;2023-04-28T02:05:21;101338.69;;;26.03;61.26
250;BME280;109;19.806;-70.704;2023-04-28T02:07:49;101340.06;;;26.11;61.04
250;BME280;109;19.806;-70.704;2023-04-28T02:10:22;101348.97;;;26.12;61.04
250;BME280;109;19.806;-70.704;2023-04-28T02:12:48;101342.97;;;26.07;61.47
250;BME280;109;19.806;-70.704;2023-04-28T02:15:21;101343.75;;;26.09;61.44
250;BME280;109;19.806;-70.704;2023-04-28T02:17:47;101339.88;;;26.14;61.10
250;BME280;109;19.806;-70.704;2023-04-28T02:20:21;101351.31;;;26.18;61.60
250;BME280;109;19.806;-70.704;2023-04-28T02:22:48;101359.31;;;26.20;61.52
250;BME280;109;19.806;-70.704;2023-04-28T02:25:21;101358.13;;;26.25;61.28
250;BME280;109;19.806;-70.704;2023-04-28T02:27:47;101355.97;;;26.14;61.37
250;BME280;109;19.806;-70.704;2023-04-28T02:30:21;101349.66;;;26.15;60.99
250;BME280;109;19.806;-70.704;2023-04-28T02:32:47;101342.41;;;26.17;61.43
250;BME280;109;19.806;-70.704;2023-04-28T02:35:28;101345.41;;;26.11;61.31
250;BME280;109;19.806;-70.704;2023-04-28T02:38:01;101344.38;;;26.14;61.03
250;BME280;109;19.806;-70.704;2023-04-28T02:40:27;101342.34;;;26.19;61.04
250;BME280;109;19.806;-70.704;2023-04-28T02:43:00;101341.78;;;26.12;60.98
250;BME280;109;19.806;-70.704;2023-04-28T02:45:27;101346.97;;;26.15;60.77
250;BME280;109;19.806;-70.704;2023-04-28T02:48:00;101345.16;;;26.16;61.10
250;BME280;109;19.806;-70.704;2023-04-28T02:50:28;101356.31;;;26.26;60.68
250;BME280;109;19.806;-70.704;2023-04-28T02:53:01;101344.22;;;26.00;61.52
250;BME280;109;19.806;-70.704;2023-04-28T02:55:27;101345.84;;;26.02;61.54
250;BME280;109;19.806;-70.704;2023-04-28T02:58:01;101351.53;;;25.96;61.05
250;BME280;109;19.806;-70.704;2023-04-28T03:00:27;101352.66;;;26.09;61.32
250;BME280;109;19.806;-70.704;2023-04-28T03:03:01;101349.47;;;26.01;60.92
250;BME280;109;19.806;-70.704;2023-04-28T03:05:28;101359.13;;;26.05;61.00
250;BME280;109;19.806;-70.704;2023-04-28T03:08:01;101346.09;;;25.98;61.09
250;BME280;109;19.806;-70.704;2023-04-28T03:10:28;101348.72;;;25.99;61.10
250;BME280;109;19.806;-70.704;2023-04-28T03:13:02;101345.97;;;26.01;61.14
250;BME280;109;19.806;-70.704;2023-04-28T03:15:29;101353.44;;;25.94;61.31
250;BME280;109;19.806;-70.704;2023-04-28T03:18:02;101348.84;;;25.96;61.36
250;BME280;109;19.806;-70.704;2023-04-28T03:20:36;101348.22;;;25.91;61.63
250;BME280;109;19.806;-70.704;2023-04-28T03:23:10;101345.44;;;25.93;61.49
250;BME280;109;19.806;-70.704;2023-04-28T03:25:36;101340.97;;;25.93;61.82
250;BME280;109;19.806;-70.704;2023-04-28T03:28:10;101337.19;;;25.97;61.32
250;BME280;109;19.806;-70.704;2023-04-28T03:30:37;101352.16;;;25.84;61.29
250;BME280;109;19.806;-70.704;2023-04-28T03:33:10;101341.75;;;25.95;61.37
250;BME280;109;19.806;-70.704;2023-04-28T03:35:37;101341.63;;;25.98;61.21
250;BME280;109;19.806;-70.704;2023-04-28T03:38:22;101337.25;;;25.96;61.45
250;BME280;109;19.806;-70.704;2023-04-28T03:40:56;101345.44;;;25.93;61.59
250;BME280;109;19.806;-70.704;2023-04-28T03:43:42;101337.47;;;25.91;61.91
250;BME280;109;19.806;-70.704;2023-04-28T03:46:23;101326.59;;;25.94;61.23
250;BME280;109;19.806;-70.704;2023-04-28T03:48:58;101319.50;;;25.93;61.49
250;BME280;109;19.806;-70.704;2023-04-28T03:51:25;101319.22;;;25.99;60.95
250;BME280;109;19.806;-70.704;2023-04-28T03:54:00;101320.22;;;25.97;61.55
250;BME280;109;19.806;-70.704;2023-04-28T03:56:26;101323.72;;;25.99;61.49
250;BME280;109;19.806;-70.704;2023-04-28T03:59:00;101327.41;;;25.96;61.29
250;BME280;109;19.806;-70.704;2023-04-28T04:01:34;101319.28;;;25.98;61.46
250;BME280;109;19.806;-70.704;2023-04-28T04:04:08;101314.78;;;25.98;61.46
250;BME280;109;19.806;-70.704;2023-04-28T04:06:35;101316.75;;;25.95;61.57
250;BME280;109;19.806;-70.704;2023-04-28T04:09:09;101316.16;;;25.88;61.28
250;BME280;109;19.806;-70.704;2023-04-28T04:11:36;101305.00;;;25.97;60.98
250;BME280;109;19.806;-70.704;2023-04-28T04:14:10;101305.00;;;25.97;61.19
250;BME280;109;19.806;-70.704;2023-04-28T04:16:36;101304.28;;;25.94;61.60
250;BME280;109;19.806;-70.704;2023-04-28T04:19:10;101307.44;;;25.85;61.21
250;BME280;109;19.806;-70.704;2023-04-28T04:21:40;101299.00;;;25.92;61.22
250;BME280;109;19.806;-70.704;2023-04-28T04:24:14;101300.50;;;25.98;61.16
250;BME280;109;19.806;-70.704;2023-04-28T04:26:41;101304.22;;;25.95;61.06
250;BME280;109;19.806;-70.704;2023-04-28T04:29:28;101299.88;;;25.93;61.29
250;BME280;109;19.806;-70.704;2023-04-28T04:32:06;101302.94;;;25.85;61.41
250;BME280;109;19.806;-70.704;2023-04-28T04:34:40;101296.75;;;25.83;61.30
250;BME280;109;19.806;-70.704;2023-04-28T04:37:27;101304.44;;;25.91;60.93
250;BME280;109;19.806;-70.704;2023-04-28T04:40:01;101302.69;;;25.90;61.39
250;BME280;109;19.806;-70.704;2023-04-28T04:42:34;101298.84;;;25.95;61.23
250;BME280;109;19.806;-70.704;2023-04-28T04:45:11;101300.59;;;25.96;60.71
250;BME280;109;19.806;-70.704;2023-04-28T04:47:44;101307.75;;;25.96;60.75
250;BME280;109;19.806;-70.704;2023-04-28T04:50:11;101296.75;;;25.83;61.23
250;BME280;109;19.806;-70.704;2023-04-28T04:53:00;101297.22;;;25.74;61.15
250;BME280;109;19.806;-70.704;2023-04-28T04:55:39;101299.56;;;25.80;61.08
250;BME280;109;19.806;-70.704;2023-04-28T04:58:07;101300.66;;;25.76;61.28
250;BME280;109;19.806;-70.704;2023-04-28T05:00:49;101308.09;;;25.71;61.53
250;BME280;109;19.806;-70.704;2023-04-28T05:03:22;101313.13;;;25.77;61.23
250;BME280;109;19.806;-70.704;2023-04-28T05:05:49;101304.06;;;25.79;61.13
250;BME280;109;19.806;-70.704;2023-04-28T05:08:32;101312.66;;;25.69;61.30
250;BME280;109;19.806;-70.704;2023-04-28T05:11:06;101309.84;;;25.53;61.60
250;BME280;109;19.806;-70.704;2023-04-28T05:13:40;101297.81;;;25.62;61.66
250;BME280;109;19.806;-70.704;2023-04-28T05:16:14;101284.09;;;25.68;61.63
250;BME280;109;19.806;-70.704;2023-04-28T05:19:07;101283.44;;;25.63;61.95
250;BME280;109;19.806;-70.704;2023-04-28T05:21:40;101277.66;;;25.72;61.94
250;BME280;109;19.806;-70.704;2023-04-28T05:24:07;101281.28;;;25.71;61.48
250;BME280;109;19.806;-70.704;2023-04-28T05:26:40;101286.56;;;25.72;61.61
250;BME280;109;19.806;-70.704;2023-04-28T05:29:09;101286.91;;;25.65;61.78
250;BME280;109;19.806;-70.704;2023-04-28T05:31:42;101288.03;;;25.61;62.02
250;BME280;109;19.806;-70.704;2023-04-28T05:34:08;101295.28;;;25.59;61.76
250;BME280;109;19.806;-70.704;2023-04-28T05:36:43;101294.03;;;25.66;62.20
250;BME280;109;19.806;-70.704;2023-04-28T05:39:26;101275.13;;;25.69;61.73
250;BME280;109;19.806;-70.704;2023-04-28T05:41:55;101273.28;;;25.69;62.18
250;BME280;109;19.806;-70.704;2023-04-28T05:44:30;101280.00;;;25.78;61.55
250;BME280;109;19.806;-70.704;2023-04-28T05:46:57;101282.75;;;25.76;62.02
250;BME280;109;19.806;-70.704;2023-04-28T05:49:31;101278.34;;;25.75;61.56
250;BME280;109;19.806;-70.704;2023-04-28T05:51:57;101276.47;;;25.77;61.80
250;BME280;109;19.806;-70.704;2023-04-28T05:54:31;101275.44;;;25.80;62.04
250;BME280;109;19.806;-70.704;2023-04-28T05:56:59;101263.84;;;25.79;61.47
250;BME280;109;19.806;-70.704;2023-04-28T05:59:33;101267.63;;;25.75;61.39
250;BME280;109;19.806;-70.704;2023-04-28T06:02:07;101260.53;;;25.74;61.42
250;BME280;109;19.806;-70.704;2023-04-28T06:04:40;101256.19;;;25.72;61.46
250;BME280;109;19.806;-70.704;2023-04-28T06:07:07;101250.97;;;25.69;61.64
250;BME280;109;19.806;-70.704;2023-04-28T06:09:40;101253.19;;;25.61;62.24
250;BME280;109;19.806;-70.704;2023-04-28T06:12:07;101252.69;;;25.53;62.40
250;BME280;109;19.806;-70.704;2023-04-28T06:14:40;101258.69;;;25.58;62.01
250;BME280;109;19.806;-70.704;2023-04-28T06:17:08;101252.13;;;25.63;62.21
250;BME280;109;19.806;-70.704;2023-04-28T06:19:42;101253.44;;;25.73;61.96
250;BME280;109;19.806;-70.704;2023-04-28T06:22:08;101246.88;;;25.79;61.65
250;BME280;109;19.806;-70.704;2023-04-28T06:24:41;101247.97;;;25.75;61.60
250;BME280;109;19.806;-70.704;2023-04-28T06:27:12;101243.41;;;25.77;61.55
250;BME280;109;19.806;-70.704;2023-04-28T06:29:45;101245.56;;;25.70;62.19
250;BME280;109;19.806;-70.704;2023-04-28T06:32:12;101239.53;;;25.65;62.39
250;BME280;109;19.806;-70.704;2023-04-28T06:34:45;101241.94;;;25.71;61.98
250;BME280;109;19.806;-70.704;2023-04-28T06:37:33;101240.41;;;25.66;62.01
250;BME280;109;19.806;-70.704;2023-04-28T06:40:07;101241.28;;;25.66;62.36
250;BME280;109;19.806;-70.704;2023-04-28T06:42:34;101239.53;;;25.65;62.21
250;BME280;109;19.806;-70.704;2023-04-28T06:45:17;101236.31;;;25.59;61.99
250;BME280;109;19.806;-70.704;2023-04-28T06:47:58;101237.25;;;25.58;62.03
250;BME280;109;19.806;-70.704;2023-04-28T06:50:31;101233.47;;;25.62;62.31
250;BME280;109;19.806;-70.704;2023-04-28T06:52:58;101231.03;;;25.57;62.18
250;BME280;109;19.806;-70.704;2023-04-28T06:55:31;101230.28;;;25.54;62.13
250;BME280;109;19.806;-70.704;2023-04-28T06:57:59;101233.69;;;25.57;61.88
250;BME280;109;19.806;-70.704;2023-04-28T07:00:33;101239.00;;;25.59;62.21
250;BME280;109;19.806;-70.704;2023-04-28T07:03:00;101233.69;;;25.57;61.95
250;BME280;109;19.806;-70.704;2023-04-28T07:05:33;101241.03;;;25.54;62.33
250;BME280;109;19.806;-70.704;2023-04-28T07:08:02;101245.28;;;25.58;61.95
250;BME280;109;19.806;-70.704;2023-04-28T07:10:36;101247.97;;;25.58;62.09
250;BME280;109;19.806;-70.704;2023-04-28T07:13:02;101243.63;;;25.55;61.90
250;BME280;109;19.806;-70.704;2023-04-28T07:15:35;101236.19;;;25.43;62.58
250;BME280;109;19.806;-70.704;2023-04-28T07:18:01;101238.94;;;25.41;62.11
250;BME280;109;19.806;-70.704;2023-04-28T07:20:34;101234.16;;;25.48;62.22
250;BME280;109;19.806;-70.704;2023-04-28T07:23:00;101233.78;;;25.56;62.58
250;BME280;109;19.806;-70.704;2023-04-28T07:25:33;101237.25;;;25.58;62.43
250;BME280;109;19.806;-70.704;2023-04-28T07:28:02;101238.25;;;25.55;62.13
250;BME280;109;19.806;-70.704;2023-04-28T07:30:35;101238.25;;;25.55;61.99
250;BME280;109;19.806;-70.704;2023-04-28T07:33:01;101230.22;;;25.55;62.03
250;BME280;109;19.806;-70.704;2023-04-28T07:35:35;101236.25;;;25.60;62.41
250;BME280;109;19.806;-70.704;2023-04-28T07:38:22;101228.19;;;25.60;62.06
250;BME280;109;19.806;-70.704;2023-04-28T07:40:55;101235.38;;;25.60;62.00
250;BME280;109;19.806;-70.704;2023-04-28T07:43:22;101226.28;;;25.62;62.33
250;BME280;109;19.806;-70.704;2023-04-28T07:45:55;101228.97;;;25.62;61.81
250;BME280;109;19.806;-70.704;2023-04-28T07:48:30;101231.03;;;25.57;62.16
250;BME280;109;19.806;-70.704;2023-04-28T07:51:04;101217.97;;;25.50;62.02
250;BME280;109;19.806;-70.704;2023-04-28T07:53:31;101215.81;;;25.58;61.96
250;BME280;109;19.806;-70.704;2023-04-28T07:56:04;101215.81;;;25.58;62.35
250;BME280;109;19.806;-70.704;2023-04-28T07:58:31;101210.38;;;25.59;62.27
250;BME280;109;19.806;-70.704;2023-04-28T08:01:04;101206.09;;;25.55;61.84
250;BME280;109;19.806;-70.704;2023-04-28T08:03:31;101213.50;;;25.50;62.04
250;BME280;109;19.806;-70.704;2023-04-28T08:06:04;101211.00;;;25.47;62.11
250;BME280;109;19.806;-70.704;2023-04-28T08:08:31;101211.06;;;25.45;62.31
250;BME280;109;19.806;-70.704;2023-04-28T08:11:04;101211.34;;;25.39;62.28
250;BME280;109;19.806;-70.704;2023-04-28T08:13:31;101208.66;;;25.39;62.33
250;BME280;109;19.806;-70.704;2023-04-28T08:16:05;101211.13;;;25.44;62.15
250;BME280;109;19.806;-70.704;2023-04-28T08:18:32;101206.50;;;25.48;61.86
250;BME280;109;19.806;-70.704;2023-04-28T08:21:05;101201.75;;;25.35;62.13
250;BME280;109;19.806;-70.704;2023-04-28T08:23:32;101206.13;;;25.36;62.14
250;BME280;109;19.806;-70.704;2023-04-28T08:26:13;101199.94;;;25.36;61.98
250;BME280;109;19.806;-70.704;2023-04-28T08:28:46;101189.75;;;25.24;61.55
250;BME280;109;19.806;-70.704;2023-04-28T08:31:12;101198.41;;;25.30;61.90
250;BME280;109;19.806;-70.704;2023-04-28T08:33:45;101196.22;;;25.38;61.69
250;BME280;109;19.806;-70.704;2023-04-28T08:36:15;101204.56;;;25.32;61.51
250;BME280;109;19.806;-70.704;2023-04-28T08:38:56;101199.34;;;25.29;61.58
250;BME280;109;19.806;-70.704;2023-04-28T08:41:24;101199.13;;;25.34;61.22
250;BME280;109;19.806;-70.704;2023-04-28T08:44:01;101201.19;;;25.27;61.39
250;BME280;109;19.806;-70.704;2023-04-28T08:46:27;101199.22;;;25.32;61.59
250;BME280;109;19.806;-70.704;2023-04-28T08:49:03;101207.09;;;25.35;61.72
250;BME280;109;19.806;-70.704;2023-04-28T08:51:45;101206.84;;;25.40;61.45
250;BME280;109;19.806;-70.704;2023-04-28T08:54:19;101205.19;;;25.37;61.35
250;BME280;109;19.806;-70.704;2023-04-28T08:56:47;101209.00;;;25.33;61.15
250;BME280;109;19.806;-70.704;2023-04-28T08:59:21;101208.91;;;25.35;61.47
250;BME280;109;19.806;-70.704;2023-04-28T09:01:49;101216.31;;;25.30;61.43
250;BME280;109;19.806;-70.704;2023-04-28T09:04:22;101218.91;;;25.31;61.05
250;BME280;109;19.806;-70.704;2023-04-28T09:06:57;101213.97;;;25.22;61.25
250;BME280;109;19.806;-70.704;2023-04-28T09:09:30;101221.75;;;25.27;61.13
250;BME280;109;19.806;-70.704;2023-04-28T09:11:59;101222.28;;;25.16;61.25
250;BME280;109;19.806;-70.704;2023-04-28T09:14:34;101231.19;;;25.17;61.19
250;BME280;109;19.806;-70.704;2023-04-28T09:17:02;101232.94;;;25.18;61.13
250;BME280;109;19.806;-70.704;2023-04-28T09:19:40;101231.00;;;25.21;60.83
250;BME280;109;19.806;-70.704;2023-04-28T09:22:10;101233.28;;;25.29;60.42
250;BME280;109;19.806;-70.704;2023-04-28T09:24:43;101232.94;;;25.18;60.39
250;BME280;109;19.806;-70.704;2023-04-28T09:27:12;101247.28;;;25.17;60.97
250;BME280;109;19.806;-70.704;2023-04-28T09:29:52;101248.28;;;25.14;60.68
250;BME280;109;19.806;-70.704;2023-04-28T09:32:25;101250.16;;;25.12;61.07
250;BME280;109;19.806;-70.704;2023-04-28T09:34:54;101249.75;;;25.21;61.08
250;BME280;109;19.806;-70.704;2023-04-28T09:37:32;101245.94;;;25.25;61.19
250;BME280;109;19.806;-70.704;2023-04-28T09:40:11;101246.25;;;25.19;60.83
250;BME280;109;19.806;-70.704;2023-04-28T09:42:43;101240.91;;;25.19;60.95
250;BME280;109;19.806;-70.704;2023-04-28T09:45:18;101247.94;;;25.22;60.79
250;BME280;109;19.806;-70.704;2023-04-28T09:47:51;101247.06;;;25.21;60.72
250;BME280;109;19.806;-70.704;2023-04-28T09:50:24;101259.72;;;25.18;60.48
250;BME280;109;19.806;-70.704;2023-04-28T09:52:57;101264.06;;;25.20;60.41
250;BME280;109;19.806;-70.704;2023-04-28T09:55:31;101262.19;;;25.22;60.45
250;BME280;109;19.806;-70.704;2023-04-28T09:58:02;101262.19;;;25.22;60.39
250;BME280;109;19.806;-70.704;2023-04-28T10:00:39;101260.44;;;25.21;60.27
250;BME280;109;19.806;-70.704;2023-04-28T10:03:08;101268.84;;;25.14;60.31
250;BME280;109;19.806;-70.704;2023-04-28T10:05:42;101269.06;;;25.09;60.49
250;BME280;109;19.806;-70.704;2023-04-28T10:08:10;101267.81;;;25.16;60.29
250;BME280;109;19.806;-70.704;2023-04-28T10:10:43;101271.50;;;25.14;60.07
250;BME280;109;19.806;-70.704;2023-04-28T10:13:10;101278.41;;;25.19;60.03
250;BME280;109;19.806;-70.704;2023-04-28T10:15:43;101284.56;;;25.21;60.06
250;BME280;109;19.806;-70.704;2023-04-28T10:18:11;101284.50;;;25.23;59.90
250;BME280;109;19.806;-70.704;2023-04-28T10:20:48;101289.13;;;25.19;59.74
250;BME280;109;19.806;-70.704;2023-04-28T10:26:15;101286.78;;;25.11;59.76
250;BME280;109;19.806;-70.704;2023-04-28T10:28:53;101293.00;;;25.12;59.99
250;BME280;109;19.806;-70.704;2023-04-28T10:31:20;101293.75;;;25.16;59.56
250;BME280;109;19.806;-70.704;2023-04-28T10:33:54;101300.72;;;25.20;59.49
250;BME280;109;19.806;-70.704;2023-04-28T10:36:46;101309.38;;;25.25;59.58
250;BME280;109;19.806;-70.704;2023-04-28T10:39:22;101310.41;;;25.22;59.46
250;BME280;109;19.806;-70.704;2023-04-28T10:41:55;101308.44;;;25.26;59.89
250;BME280;109;19.806;-70.704;2023-04-28T10:47:05;101307.88;;;25.19;59.90
250;BME280;109;19.806;-70.704;2023-04-28T11:04:12;101316.47;;;25.63;60.58
250;BME280;109;19.806;-70.704;2023-04-28T11:09:56;101323.38;;;25.69;59.93
250;BME280;109;19.806;-70.704;2023-04-28T11:12:22;101319.97;;;25.84;59.43
250;BME280;109;19.806;-70.704;2023-04-28T11:14:49;101322.13;;;25.95;59.26
250;BME280;109;19.806;-70.704;2023-04-28T11:17:15;101326.75;;;25.91;59.93
250;BME280;109;19.806;-70.704;2023-04-28T11:19:45;101335.13;;;26.02;59.95
250;BME280;109;19.806;-70.704;2023-04-28T11:22:18;101339.53;;;26.03;60.02
250;BME280;109;19.806;-70.704;2023-04-28T11:24:59;101343.34;;;26.16;60.11
250;BME280;109;19.806;-70.704;2023-04-28T11:27:30;101348.81;;;26.32;58.76
250;BME280;109;19.806;-70.704;2023-04-28T11:29:58;101354.09;;;26.34;58.95
250;BME280;109;19.806;-70.704;2023-04-28T11:32:33;101357.88;;;26.30;58.33
250;BME280;109;19.806;-70.704;2023-04-28T11:35:02;101352.41;;;26.50;57.89
250;BME280;109;19.806;-70.704;2023-04-28T11:37:34;101361.28;;;26.68;57.86
250;BME280;109;19.806;-70.704;2023-04-28T11:40:10;101362.72;;;26.75;57.40
250;BME280;109;19.806;-70.704;2023-04-28T11:42:46;101367.53;;;26.85;57.85
250;BME280;109;19.806;-70.704;2023-04-28T11:45:13;101370.72;;;26.59;57.59
250;BME280;109;19.806;-70.704;2023-04-28T11:47:40;101367.22;;;26.74;57.51
250;BME280;109;19.806;-70.704;2023-04-28T11:50:07;101375.59;;;26.85;56.33
250;BME280;109;19.806;-70.704;2023-04-28T11:52:33;101379.88;;;26.72;56.06
250;BME280;109;19.806;-70.704;2023-04-28T11:55:00;101380.31;;;26.80;56.35
250;BME280;109;19.806;-70.704;2023-04-28T11:57:27;101383.78;;;26.82;55.83
250;BME280;109;19.806;-70.704;2023-04-28T12:00:13;101381.75;;;26.88;55.50
250;BME280;109;19.806;-70.704;2023-04-28T12:02:44;101378.44;;;26.82;56.01
250;BME280;109;19.806;-70.704;2023-04-28T12:05:11;101390.69;;;26.71;56.47
250;BME280;109;19.806;-70.704;2023-04-28T12:07:41;101387.84;;;26.74;56.54
250;BME280;109;19.806;-70.704;2023-04-28T12:10:13;101396.44;;;26.80;56.22
250;BME280;109;19.806;-70.704;2023-04-28T12:12:44;101395.81;;;26.93;55.97
250;BME280;109;19.806;-70.704;2023-04-28T12:15:12;101402.78;;;26.97;56.46
250;BME280;109;19.806;-70.704;2023-04-28T12:17:41;101412.13;;;27.23;56.30
250;BME280;109;19.806;-70.704;2023-04-28T12:20:09;101406.88;;;27.04;55.75
250;BME280;109;19.806;-70.704;2023-04-28T12:22:46;101408.59;;;26.88;56.73
250;BME280;109;19.806;-70.704;2023-04-28T12:25:15;101399.19;;;27.13;56.09
250;BME280;109;19.806;-70.704;2023-04-28T12:28:01;101400.84;;;27.49;54.79
250;BME280;109;19.806;-70.704;2023-04-28T12:30:30;101400.19;;;27.77;54.44
250;BME280;109;19.806;-70.704;2023-04-28T12:32:57;101403.41;;;27.99;54.83
250;BME280;109;19.806;-70.704;2023-04-28T12:35:24;101412.75;;;28.23;54.82
250;BME280;109;19.806;-70.704;2023-04-28T12:37:52;101411.75;;;28.40;54.44
250;BME280;109;19.806;-70.704;2023-04-28T12:40:18;101416.63;;;28.49;55.20
250;BME280;109;19.806;-70.704;2023-04-28T12:42:45;101425.63;;;28.18;55.21
250;BME280;109;19.806;-70.704;2023-04-28T12:45:11;101423.72;;;28.20;55.79
250;BME280;109;19.806;-70.704;2023-04-28T12:47:39;101428.38;;;28.33;55.02
250;BME280;109;19.806;-70.704;2023-04-28T12:50:07;101432.25;;;28.43;54.83
250;BME280;109;19.806;-70.704;2023-04-28T12:52:34;101430.78;;;28.53;54.98
250;BME280;109;19.806;-70.704;2023-04-28T12:55:03;101430.44;;;28.43;54.78
250;BME280;109;19.806;-70.704;2023-04-28T12:57:29;101436.97;;;28.23;54.64
250;BME280;109;19.806;-70.704;2023-04-28T12:59:56;101432.50;;;28.38;54.63
250;BME280;109;19.806;-70.704;2023-04-28T13:02:23;101435.91;;;28.57;54.36
250;BME280;109;19.806;-70.704;2023-04-28T13:04:49;101439.47;;;28.58;53.92
250;BME280;109;19.806;-70.704;2023-04-28T13:07:17;101435.72;;;28.75;53.44
250;BME280;109;19.806;-70.704;2023-04-28T13:09:44;101438.97;;;28.95;53.39
250;BME280;109;19.806;-70.704;2023-04-28T13:12:12;101441.16;;;28.89;52.92
250;BME280;109;19.806;-70.704;2023-04-28T13:14:39;101445.75;;;28.87;52.61
250;BME280;109;19.806;-70.704;2023-04-28T13:17:06;101451.84;;;28.90;52.58
250;BME280;109;19.806;-70.704;2023-04-28T13:19:33;101453.28;;;28.82;52.44
250;BME280;109;19.806;-70.704;2023-04-28T13:22:00;101457.03;;;28.79;52.82
250;BME280;109;19.806;-70.704;2023-04-28T13:24:30;101450.09;;;28.89;52.73
250;BME280;109;19.806;-70.704;2023-04-28T13:26:58;101458.66;;;28.98;52.91
250;BME280;109;19.806;-70.704;2023-04-28T13:29:24;101461.16;;;29.15;52.89
250;BME280;109;19.806;-70.704;2023-04-28T13:31:51;101456.25;;;29.21;52.14
250;BME280;109;19.806;-70.704;2023-04-28T13:34:17;101451.84;;;29.20;51.90
250;BME280;109;19.806;-70.704;2023-04-28T13:36:44;101446.63;;;29.31;51.77
250;BME280;109;19.806;-70.704;2023-04-28T13:39:13;101451.88;;;29.49;50.81
250;BME280;109;19.806;-70.704;2023-04-28T13:41:39;101450.38;;;29.29;51.81
250;BME280;109;19.806;-70.704;2023-04-28T13:44:06;101454.63;;;29.19;52.27
250;BME280;109;19.806;-70.704;2023-04-28T13:46:32;101456.72;;;29.28;52.51
250;BME280;109;19.806;-70.704;2023-04-28T13:48:59;101453.94;;;29.29;52.11
250;BME280;109;19.806;-70.704;2023-04-28T13:51:25;101455.13;;;28.95;52.20
250;BME280;109;19.806;-70.704;2023-04-28T13:53:53;101454.50;;;28.76;53.04